sensor_id;sensor_type;location;lat;lon;timestamp;pressure;altitude;pressure_sealevel;temperature;humidity
21644;BME280;10983;51.982;9.226;2022-10-16T00:00:52;65387.91;;;-139.23;100.00
21644;BME280;10983;51.982;9.226;2022-10-16T00:03:19;65387.91;;;-139.23;100.00
21644;BME280;10983;51.982;9.226;2022-10-16T00:05:53;65387.91;;;-139.23;100.00
21644;BME280;10983;51.982;9.226;2022-10-16T00:08:20;65387.91;;;-139.23;100.00
21644;BME280;10983;51.982;9.226;2022-10-16T00:10:48;65387.91;;;-139.23;100.00
21644;BME280;10983;51.982;9.226;2022-10-16T00:13:16;65387.91;;;-139.23;100.00
21644;BME280;10983;51.982;9.226;2022-10-16T00:15:45;65387.91;;;-139.23;100.00
21644;BME280;10983;51.982;9.226;2022-10-16T00:18:13;65387.91;;;-139.23;100.00
21644;BME280;10983;51.982;9.226;2022-10-16T00:20:41;65387.91;;;-139.23;100.00
21644;BME280;10983;51.982;9.226;2022-10-16T00:23:08;65387.91;;;-139.23;100.00
21644;BME280;10983;51.982;9.226;2022-10-16T00:25:36;65387.91;;;-139.23;100.00
21644;BME280;10983;51.982;9.226;2022-10-16T00:28:04;65387.91;;;-139.23;100.00
21644;BME280;10983;51.982;9.226;2022-10-16T00:30:31;65387.91;;;-139.23;100.00
21644;BME280;10983;51.982;9.226;2022-10-16T00:33:00;65387.91;;;-139.23;100.00
21644;BME280;10983;51.982;9.226;2022-10-16T00:35:28;65387.91;;;-139.23;100.00
21644;BME280;10983;51.982;9.226;2022-10-16T00:37:56;65387.91;;;-139.23;100.00
21644;BME280;10983;51.982;9.226;2022-10-16T00:40:23;65387.91;;;-139.23;100.00
21644;BME280;10983;51.982;9.226;2022-10-16T00:42:51;65387.91;;;-139.23;100.00
21644;BME280;10983;51.982;9.226;2022-10-16T00:45:19;65387.91;;;-139.23;100.00
21644;BME280;10983;51.982;9.226;2022-10-16T00:47:47;65387.91;;;-139.23;100.00
21644;BME280;10983;51.982;9.226;2022-10-16T00:50:24;65387.91;;;-139.23;100.00
21644;BME280;10983;51.982;9.226;2022-10-16T00:52:54;65387.91;;;-139.23;100.00
21644;BME280;10983;51.982;9.226;2022-10-16T00:55:22;65387.91;;;-139.23;100.00
21644;BME280;10983;51.982;9.226;2022-10-16T00:57:51;65387.91;;;-139.23;100.00
21644;BME280;10983;51.982;9.226;2022-10-16T01:00:21;65387.91;;;-139.23;100.00
21644;BME280;10983;51.982;9.226;2022-10-16T01:02:52;65387.91;;;-139.23;100.00
21644;BME280;10983;51.982;9.226;2022-10-16T01:05:22;65387.91;;;-139.23;100.00
21644;BME280;10983;51.982;9.226;2022-10-16T01:07:56;65387.91;;;-139.23;100.00
21644;BME280;10983;51.982;9.226;2022-10-16T01:10:29;65387.91;;;-139.23;100.00
21644;BME280;10983;51.982;9.226;2022-10-16T01:13:03;65387.91;;;-139.23;100.00
21644;BME280;10983;51.982;9.226;2022-10-16T01:15:37;65387.91;;;-139.23;100.00
21644;BME280;10983;51.982;9.226;2022-10-16T01:18:09;65387.91;;;-139.23;100.00
21644;BME280;10983;51.982;9.226;2022-10-16T01:20:42;65387.91;;;-139.23;100.00
21644;BME280;10983;51.982;9.226;2022-10-16T01:23:22;65387.91;;;-139.23;100.00
21644;BME280;10983;51.982;9.226;2022-10-16T01:26:13;65387.91;;;-139.23;100.00
21644;BME280;10983;51.982;9.226;2022-10-16T01:28:47;65387.91;;;-139.23;100.00
21644;BME280;10983;51.982;9.226;2022-10-16T01:31:18;65387.91;;;-139.23;100.00
21644;BME280;10983;51.982;9.226;2022-10-16T01:33:51;65387.91;;;-139.23;100.00
21644;BME280;10983;51.982;9.226;2022-10-16T01:36:26;65387.91;;;-139.23;100.00
21644;BME280;10983;51.982;9.226;2022-10-16T01:39:00;65387.91;;;-139.23;100.00
21644;BME280;10983;51.982;9.226;2022-10-16T01:41:32;65387.91;;;-139.23;100.00
21644;BME280;10983;51.982;9.226;2022-10-16T01:44:04;65387.91;;;-139.23;100.00
21644;BME280;10983;51.982;9.226;2022-10-16T01:46:33;65387.91;;;-139.23;100.00
21644;BME280;10983;51.982;9.226;2022-10-16T01:49:02;65387.91;;;-139.23;100.00
21644;BME280;10983;51.982;9.226;2022-10-16T01:51:31;65387.91;;;-139.23;100.00
21644;BME280;10983;51.982;9.226;2022-10-16T01:54:00;65387.91;;;-139.23;100.00
21644;BME280;10983;51.982;9.226;2022-10-16T01:56:29;65387.91;;;-139.23;100.00
21644;BME280;10983;51.982;9.226;2022-10-16T01:59:00;65387.91;;;-139.23;100.00
21644;BME280;10983;51.982;9.226;2022-10-16T02:01:31;65387.91;;;-139.23;100.00
21644;BME280;10983;51.982;9.226;2022-10-16T02:04:07;65387.91;;;-139.23;100.00
21644;BME280;10983;51.982;9.226;2022-10-16T02:06:35;65387.91;;;-139.23;100.00
21644;BME280;10983;51.982;9.226;2022-10-16T02:09:03;65387.91;;;-139.23;100.00
21644;BME280;10983;51.982;9.226;2022-10-16T02:11:30;65387.91;;;-139.23;100.00
21644;BME280;10983;51.982;9.226;2022-10-16T02:14:01;65387.91;;;-139.23;100.00
21644;BME280;10983;51.982;9.226;2022-10-16T02:16:37;65387.91;;;-139.23;100.00
21644;BME280;10983;51.982;9.226;2022-10-16T02:19:06;65387.91;;;-139.23;100.00
21644;BME280;10983;51.982;9.226;2022-10-16T02:21:40;65387.91;;;-139.23;100.00
21644;BME280;10983;51.982;9.226;2022-10-16T02:24:15;65387.91;;;-139.23;100.00
21644;BME280;10983;51.982;9.226;2022-10-16T02:26:49;65387.91;;;-139.23;100.00
21644;BME280;10983;51.982;9.226;2022-10-16T02:29:22;65387.91;;;-139.23;100.00
21644;BME280;10983;51.982;9.226;2022-10-16T02:31:55;65387.91;;;-139.23;100.00
21644;BME280;10983;51.982;9.226;2022-10-16T02:34:25;65387.91;;;-139.23;100.00
21644;BME280;10983;51.982;9.226;2022-10-16T02:36:56;65387.91;;;-139.23;100.00
21644;BME280;10983;51.982;9.226;2022-10-16T02:39:26;65387.91;;;-139.23;100.00
21644;BME280;10983;51.982;9.226;2022-10-16T02:41:54;65387.91;;;-139.23;100.00
21644;BME280;10983;51.982;9.226;2022-10-16T02:44:22;65387.91;;;-139.23;100.00
21644;BME280;10983;51.982;9.226;2022-10-16T02:46:49;65387.91;;;-139.23;100.00
21644;BME280;10983;51.982;9.226;2022-10-16T02:49:18;65387.91;;;-139.23;100.00
21644;BME280;10983;51.982;9.226;2022-10-16T02:51:46;65387.91;;;-139.23;100.00
21644;BME280;10983;51.982;9.226;2022-10-16T02:54:13;65387.91;;;-139.23;100.00
21644;BME280;10983;51.982;9.226;2022-10-16T02:56:49;100836.59;;;-138.60;100.00
21644;BME280;10983;51.982;9.226;2022-10-16T02:59:52;100836.59;;;6.27;100.00
21644;BME280;10983;51.982;9.226;2022-10-16T03:03:09;65387.91;;;-139.23;100.00
21644;BME280;10983;51.982;9.226;2022-10-16T03:06:08;100836.59;;;6.27;100.00
21644;BME280;10983;51.982;9.226;2022-10-16T03:09:33;65387.91;;;-139.23;100.00
21644;BME280;10983;51.982;9.226;2022-10-16T03:12:59;65387.91;;;-139.23;100.00
21644;BME280;10983;51.982;9.226;2022-10-16T03:16:25;65387.91;;;-139.23;100.00
21644;BME280;10983;51.982;9.226;2022-10-16T03:19:51;65387.91;;;-139.23;100.00
21644;BME280;10983;51.982;9.226;2022-10-16T03:22:20;99970.91;;;10.57;100.00
21644;BME280;10983;51.982;9.226;2022-10-16T03:24:48;99964.31;;;10.60;100.00
21644;BME280;10983;51.982;9.226;2022-10-16T03:27:16;99960.28;;;10.68;100.00
21644;BME280;10983;51.982;9.226;2022-10-16T03:29:43;99974.25;;;10.64;100.00
21644;BME280;10983;51.982;9.226;2022-10-16T03:32:11;99974.97;;;10.60;100.00
21644;BME280;10983;51.982;9.226;2022-10-16T03:34:38;99983.63;;;10.66;100.00
21644;BME280;10983;51.982;9.226;2022-10-16T03:37:06;99989.97;;;10.65;100.00
21644;BME280;10983;51.982;9.226;2022-10-16T03:39:35;99988.47;;;10.69;100.00
21644;BME280;10983;51.982;9.226;2022-10-16T03:42:03;99981.78;;;10.67;100.00
21644;BME280;10983;51.982;9.226;2022-10-16T03:44:30;99980.97;;;10.78;100.00
21644;BME280;10983;51.982;9.226;2022-10-16T03:46:58;99977.22;;;10.90;100.00
21644;BME280;10983;51.982;9.226;2022-10-16T03:49:25;99975.53;;;11.12;100.00
21644;BME280;10983;51.982;9.226;2022-10-16T03:51:52;99973.69;;;11.13;100.00
21644;BME280;10983;51.982;9.226;2022-10-16T03:54:20;99968.28;;;11.08;100.00
21644;BME280;10983;51.982;9.226;2022-10-16T03:56:49;99969.53;;;11.05;100.00
21644;BME280;10983;51.982;9.226;2022-10-16T03:59:17;99976.38;;;11.01;100.00
21644;BME280;10983;51.982;9.226;2022-10-16T04:01:44;99985.19;;;11.02;100.00
21644;BME280;10983;51.982;9.226;2022-10-16T04:04:12;99984.75;;;11.32;100.00
21644;BME280;10983;51.982;9.226;2022-10-16T04:06:39;99999.13;;;11.48;100.00
21644;BME280;10983;51.982;9.226;2022-10-16T04:09:07;100006.59;;;11.34;100.00
21644;BME280;10983;51.982;9.226;2022-10-16T04:11:34;100001.41;;;11.28;100.00
21644;BME280;10983;51.982;9.226;2022-10-16T04:14:03;99993.47;;;11.17;100.00
21644;BME280;10983;51.982;9.226;2022-10-16T04:16:30;99997.78;;;11.06;100.00
21644;BME280;10983;51.982;9.226;2022-10-16T04:18:58;99994.63;;;11.09;100.00
21644;BME280;10983;51.982;9.226;2022-10-16T04:21:26;99991.66;;;11.06;100.00
21644;BME280;10983;51.982;9.226;2022-10-16T04:23:53;99989.44;;;11.03;100.00
21644;BME280;10983;51.982;9.226;2022-10-16T04:26:21;99983.56;;;11.01;100.00
21644;BME280;10983;51.982;9.226;2022-10-16T04:28:48;99983.22;;;10.97;100.00
21644;BME280;10983;51.982;9.226;2022-10-16T04:31:17;100000.00;;;10.98;100.00
21644;BME280;10983;51.982;9.226;2022-10-16T04:33:45;99993.91;;;10.86;100.00
21644;BME280;10983;51.982;9.226;2022-10-16T04:36:12;99995.13;;;10.95;100.00
21644;BME280;10983;51.982;9.226;2022-10-16T04:38:40;99995.13;;;10.95;100.00
21644;BME280;10983;51.982;9.226;2022-10-16T04:41:08;99996.44;;;10.81;100.00
21644;BME280;10983;51.982;9.226;2022-10-16T04:43:35;100000.00;;;10.86;100.00
21644;BME280;10983;51.982;9.226;2022-10-16T04:46:03;100000.00;;;10.86;100.00
21644;BME280;10983;51.982;9.226;2022-10-16T04:48:32;100000.00;;;10.86;100.00
21644;BME280;10983;51.982;9.226;2022-10-16T04:51:00;100000.00;;;10.86;100.00
21644;BME280;10983;51.982;9.226;2022-10-16T04:53:27;100021.97;;;10.93;100.00
21644;BME280;10983;51.982;9.226;2022-10-16T04:55:55;100021.97;;;10.93;100.00
21644;BME280;10983;51.982;9.226;2022-10-16T04:58:23;65387.91;;;-139.23;100.00
21644;BME280;10983;51.982;9.226;2022-10-16T05:00:50;65387.91;;;-139.23;100.00
21644;BME280;10983;51.982;9.226;2022-10-16T05:03:21;65387.91;;;-139.23;100.00
21644;BME280;10983;51.982;9.226;2022-10-16T05:05:50;65387.91;;;-139.23;100.00
21644;BME280;10983;51.982;9.226;2022-10-16T05:08:17;65387.91;;;-139.23;100.00
21644;BME280;10983;51.982;9.226;2022-10-16T05:11:34;65387.91;;;-139.23;100.00
21644;BME280;10983;51.982;9.226;2022-10-16T05:14:01;65387.91;;;-139.23;100.00
21644;BME280;10983;51.982;9.226;2022-10-16T05:16:29;65387.91;;;-139.23;100.00
21644;BME280;10983;51.982;9.226;2022-10-16T05:18:57;65387.91;;;-139.23;100.00
21644;BME280;10983;51.982;9.226;2022-10-16T05:21:46;65387.91;;;-139.23;100.00
21644;BME280;10983;51.982;9.226;2022-10-16T05:24:13;65387.91;;;-139.23;100.00
21644;BME280;10983;51.982;9.226;2022-10-16T05:26:41;100021.97;;;10.93;100.00
21644;BME280;10983;51.982;9.226;2022-10-16T05:29:08;65387.91;;;-139.23;100.00
21644;BME280;10983;51.982;9.226;2022-10-16T05:31:36;65387.91;;;-139.23;100.00
21644;BME280;10983;51.982;9.226;2022-10-16T05:34:03;65387.91;;;-139.23;100.00
21644;BME280;10983;51.982;9.226;2022-10-16T05:36:31;65387.91;;;-139.23;100.00
21644;BME280;10983;51.982;9.226;2022-10-16T05:39:00;65387.91;;;-139.23;100.00
21644;BME280;10983;51.982;9.226;2022-10-16T05:41:27;65387.91;;;-139.23;100.00
21644;BME280;10983;51.982;9.226;2022-10-16T05:43:55;65387.91;;;-139.23;100.00
21644;BME280;10983;51.982;9.226;2022-10-16T05:46:22;65387.91;;;-139.23;100.00
21644;BME280;10983;51.982;9.226;2022-10-16T05:48:51;65387.91;;;-139.23;100.00
21644;BME280;10983;51.982;9.226;2022-10-16T05:51:19;65387.91;;;-139.23;100.00
21644;BME280;10983;51.982;9.226;2022-10-16T05:53:46;65387.91;;;-139.23;100.00
21644;BME280;10983;51.982;9.226;2022-10-16T05:56:18;65387.91;;;-139.23;100.00
21644;BME280;10983;51.982;9.226;2022-10-16T05:58:48;65387.91;;;-139.23;100.00
21644;BME280;10983;51.982;9.226;2022-10-16T06:01:18;65387.91;;;-139.23;100.00
21644;BME280;10983;51.982;9.226;2022-10-16T06:03:47;65387.91;;;-139.23;100.00
21644;BME280;10983;51.982;9.226;2022-10-16T06:06:15;65387.91;;;-139.23;100.00
21644;BME280;10983;51.982;9.226;2022-10-16T06:08:44;65387.91;;;-139.23;100.00
21644;BME280;10983;51.982;9.226;2022-10-16T06:11:14;65387.91;;;-139.23;100.00
21644;BME280;10983;51.982;9.226;2022-10-16T06:13:44;65387.91;;;-139.23;100.00
21644;BME280;10983;51.982;9.226;2022-10-16T06:16:12;65387.91;;;-139.23;100.00
21644;BME280;10983;51.982;9.226;2022-10-16T06:18:40;100021.97;;;10.93;100.00
21644;BME280;10983;51.982;9.226;2022-10-16T06:21:10;100087.63;;;11.50;100.00
21644;BME280;10983;51.982;9.226;2022-10-16T06:23:38;100092.22;;;11.66;100.00
21644;BME280;10983;51.982;9.226;2022-10-16T06:26:06;100107.44;;;11.81;100.00
21644;BME280;10983;51.982;9.226;2022-10-16T06:28:34;100113.38;;;12.00;100.00
21644;BME280;10983;51.982;9.226;2022-10-16T06:31:04;100119.03;;;12.03;100.00
21644;BME280;10983;51.982;9.226;2022-10-16T06:33:34;100124.00;;;12.11;100.00
21644;BME280;10983;51.982;9.226;2022-10-16T06:36:02;100127.47;;;12.28;100.00
21644;BME280;10983;51.982;9.226;2022-10-16T06:38:30;100127.19;;;12.41;100.00
21644;BME280;10983;51.982;9.226;2022-10-16T06:40:58;100119.59;;;12.49;100.00
21644;BME280;10983;51.982;9.226;2022-10-16T06:43:28;100135.19;;;12.57;100.00
21644;BME280;10983;51.982;9.226;2022-10-16T06:45:59;100132.94;;;12.82;100.00
21644;BME280;10983;51.982;9.226;2022-10-16T06:48:29;100136.50;;;13.04;100.00
21644;BME280;10983;51.982;9.226;2022-10-16T06:50:58;100127.03;;;13.13;100.00
21644;BME280;10983;51.982;9.226;2022-10-16T06:53:27;100125.00;;;13.20;100.00
21644;BME280;10983;51.982;9.226;2022-10-16T06:56:09;65387.91;;;-139.23;100.00
21644;BME280;10983;51.982;9.226;2022-10-16T06:58:37;65387.91;;;-139.23;100.00
21644;BME280;10983;51.982;9.226;2022-10-16T07:01:05;65387.91;;;-139.23;100.00
21644;BME280;10983;51.982;9.226;2022-10-16T07:03:35;65387.91;;;-139.23;100.00
21644;BME280;10983;51.982;9.226;2022-10-16T07:06:04;65387.91;;;-139.23;100.00
21644;BME280;10983;51.982;9.226;2022-10-16T07:08:32;65387.91;;;-139.23;100.00
21644;BME280;10983;51.982;9.226;2022-10-16T07:11:02;100125.00;;;13.20;100.00
21644;BME280;10983;51.982;9.226;2022-10-16T07:13:32;65387.91;;;-139.23;100.00
21644;BME280;10983;51.982;9.226;2022-10-16T07:16:04;65387.91;;;-139.23;100.00
21644;BME280;10983;51.982;9.226;2022-10-16T07:18:33;65387.91;;;-139.23;100.00
21644;BME280;10983;51.982;9.226;2022-10-16T07:21:05;65387.91;;;-139.23;100.00
21644;BME280;10983;51.982;9.226;2022-10-16T07:23:33;65387.91;;;-139.23;100.00
21644;BME280;10983;51.982;9.226;2022-10-16T07:26:00;65387.91;;;-139.23;100.00
21644;BME280;10983;51.982;9.226;2022-10-16T07:28:28;65387.91;;;-139.23;100.00
21644;BME280;10983;51.982;9.226;2022-10-16T07:31:00;65387.91;;;-139.23;100.00
21644;BME280;10983;51.982;9.226;2022-10-16T07:33:28;100125.00;;;23.08;100.00
21644;BME280;10983;51.982;9.226;2022-10-16T07:35:57;100167.50;;;14.80;100.00
21644;BME280;10983;51.982;9.226;2022-10-16T07:38:24;100175.97;;;14.99;100.00
21644;BME280;10983;51.982;9.226;2022-10-16T07:40:56;100173.88;;;15.06;100.00
21644;BME280;10983;51.982;9.226;2022-10-16T07:43:25;100189.31;;;15.25;100.00
21644;BME280;10983;51.982;9.226;2022-10-16T07:45:53;100187.03;;;15.43;100.00
21644;BME280;10983;51.982;9.226;2022-10-16T07:48:22;100195.97;;;15.59;100.00
21644;BME280;10983;51.982;9.226;2022-10-16T07:50:49;100202.69;;;15.61;100.00
21644;BME280;10983;51.982;9.226;2022-10-16T07:53:18;100197.34;;;15.66;100.00
21644;BME280;10983;51.982;9.226;2022-10-16T07:55:52;100192.56;;;15.78;100.00
21644;BME280;10983;51.982;9.226;2022-10-16T07:58:23;100209.81;;;15.92;100.00
21644;BME280;10983;51.982;9.226;2022-10-16T08:00:51;100223.06;;;16.13;100.00
21644;BME280;10983;51.982;9.226;2022-10-16T08:03:18;100231.38;;;16.17;100.00
21644;BME280;10983;51.982;9.226;2022-10-16T08:05:46;100246.53;;;16.47;100.00
21644;BME280;10983;51.982;9.226;2022-10-16T08:08:16;100259.44;;;16.55;100.00
21644;BME280;10983;51.982;9.226;2022-10-16T08:10:45;100283.63;;;16.60;100.00
21644;BME280;10983;51.982;9.226;2022-10-16T08:13:13;100310.72;;;16.54;100.00
21644;BME280;10983;51.982;9.226;2022-10-16T08:15:42;100340.59;;;16.67;100.00
21644;BME280;10983;51.982;9.226;2022-10-16T08:18:10;100365.84;;;16.71;100.00
21644;BME280;10983;51.982;9.226;2022-10-16T08:20:39;100392.75;;;16.76;100.00
21644;BME280;10983;51.982;9.226;2022-10-16T08:23:07;100426.66;;;16.92;100.00
21644;BME280;10983;51.982;9.226;2022-10-16T08:25:35;100447.66;;;17.10;100.00
21644;BME280;10983;51.982;9.226;2022-10-16T08:28:05;100468.38;;;17.14;100.00
21644;BME280;10983;51.982;9.226;2022-10-16T08:30:33;100491.50;;;17.10;100.00
21644;BME280;10983;51.982;9.226;2022-10-16T08:33:00;100511.34;;;17.04;100.00
21644;BME280;10983;51.982;9.226;2022-10-16T08:35:28;100522.66;;;17.11;100.00
21644;BME280;10983;51.982;9.226;2022-10-16T08:37:56;100538.50;;;17.08;100.00
21644;BME280;10983;51.982;9.226;2022-10-16T08:40:25;100538.34;;;16.83;100.00
21644;BME280;10983;51.982;9.226;2022-10-16T08:43:06;100548.84;;;16.85;100.00
21644;BME280;10983;51.982;9.226;2022-10-16T08:46:03;100545.28;;;16.74;100.00
21644;BME280;10983;51.982;9.226;2022-10-16T08:48:37;100545.47;;;16.63;100.00
21644;BME280;10983;51.982;9.226;2022-10-16T08:51:12;100532.22;;;16.51;100.00
21644;BME280;10983;51.982;9.226;2022-10-16T08:53:49;100539.28;;;16.57;100.00
21644;BME280;10983;51.982;9.226;2022-10-16T08:56:17;100537.69;;;16.66;100.00
21644;BME280;10983;51.982;9.226;2022-10-16T08:58:47;100551.97;;;16.67;100.00
21644;BME280;10983;51.982;9.226;2022-10-16T09:01:22;100558.91;;;16.63;100.00
21644;BME280;10983;51.982;9.226;2022-10-16T09:04:40;100555.97;;;16.64;100.00
21644;BME280;10983;51.982;9.226;2022-10-16T09:07:12;100551.78;;;16.83;100.00
21644;BME280;10983;51.982;9.226;2022-10-16T09:09:54;100549.56;;;17.16;100.00
21644;BME280;10983;51.982;9.226;2022-10-16T09:12:32;100573.16;;;17.50;100.00
21644;BME280;10983;51.982;9.226;2022-10-16T09:15:14;100589.66;;;17.79;100.00
21644;BME280;10983;51.982;9.226;2022-10-16T09:17:52;100606.41;;;18.00;100.00
21644;BME280;10983;51.982;9.226;2022-10-16T09:20:28;100619.13;;;18.25;100.00
21644;BME280;10983;51.982;9.226;2022-10-16T09:23:08;100639.91;;;18.59;100.00
21644;BME280;10983;51.982;9.226;2022-10-16T09:25:38;100660.41;;;18.90;100.00
21644;BME280;10983;51.982;9.226;2022-10-16T09:28:07;100692.75;;;18.85;100.00
21644;BME280;10983;51.982;9.226;2022-10-16T09:30:37;100724.03;;;19.01;100.00
21644;BME280;10983;51.982;9.226;2022-10-16T09:33:05;100731.59;;;19.33;100.00
21644;BME280;10983;51.982;9.226;2022-10-16T09:35:36;100731.59;;;19.33;100.00
21644;BME280;10983;51.982;9.226;2022-10-16T09:38:05;100771.00;;;20.42;100.00
21644;BME280;10983;51.982;9.226;2022-10-16T09:40:34;100810.50;;;20.33;100.00
21644;BME280;10983;51.982;9.226;2022-10-16T09:43:14;100849.25;;;19.54;100.00
21644;BME280;10983;51.982;9.226;2022-10-16T09:45:55;100839.53;;;19.38;100.00
21644;BME280;10983;51.982;9.226;2022-10-16T09:48:23;100827.28;;;18.86;100.00
21644;BME280;10983;51.982;9.226;2022-10-16T09:50:56;100827.28;;;18.86;100.00
21644;BME280;10983;51.982;9.226;2022-10-16T09:53:23;100790.94;;;19.33;100.00
21644;BME280;10983;51.982;9.226;2022-10-16T09:55:53;100834.91;;;19.24;100.00
21644;BME280;10983;51.982;9.226;2022-10-16T09:58:21;100803.59;;;19.77;100.00
21644;BME280;10983;51.982;9.226;2022-10-16T10:00:51;100883.53;;;19.98;100.00
21644;BME280;10983;51.982;9.226;2022-10-16T10:03:34;100860.03;;;20.09;100.00
21644;BME280;10983;51.982;9.226;2022-10-16T10:06:06;100765.56;;;20.47;100.00
21644;BME280;10983;51.982;9.226;2022-10-16T10:08:53;100676.59;;;20.55;100.00
21644;BME280;10983;51.982;9.226;2022-10-16T10:11:36;100658.56;;;19.98;100.00
21644;BME280;10983;51.982;9.226;2022-10-16T10:14:04;100642.34;;;20.03;100.00
21644;BME280;10983;51.982;9.226;2022-10-16T10:16:32;100624.91;;;20.72;100.00
21644;BME280;10983;51.982;9.226;2022-10-16T10:19:01;100626.34;;;21.21;100.00
21644;BME280;10983;51.982;9.226;2022-10-16T10:21:28;100693.84;;;20.21;100.00
21644;BME280;10983;51.982;9.226;2022-10-16T10:23:56;100670.44;;;20.50;100.00
21644;BME280;10983;51.982;9.226;2022-10-16T10:26:27;100661.53;;;20.49;100.00
21644;BME280;10983;51.982;9.226;2022-10-16T10:29:03;100665.66;;;20.37;100.00
21644;BME280;10983;51.982;9.226;2022-10-16T10:31:37;100648.81;;;21.16;100.00
21644;BME280;10983;51.982;9.226;2022-10-16T10:34:22;100656.59;;;20.18;100.00
21644;BME280;10983;51.982;9.226;2022-10-16T10:36:59;100678.53;;;20.07;100.00
21644;BME280;10983;51.982;9.226;2022-10-16T10:39:32;100655.72;;;21.04;100.00
21644;BME280;10983;51.982;9.226;2022-10-16T10:42:17;100645.13;;;21.07;100.00
21644;BME280;10983;51.982;9.226;2022-10-16T10:45:18;100644.84;;;21.09;100.00
21644;BME280;10983;51.982;9.226;2022-10-16T10:51:04;100603.47;;;20.80;100.00
21644;BME280;10983;51.982;9.226;2022-10-16T10:53:44;100614.28;;;21.08;100.00
21644;BME280;10983;51.982;9.226;2022-10-16T10:56:22;100583.81;;;22.46;100.00
21644;BME280;10983;51.982;9.226;2022-10-16T10:59:04;100407.59;;;23.26;100.00
21644;BME280;10983;51.982;9.226;2022-10-16T11:01:41;100346.75;;;22.52;100.00
21644;BME280;10983;51.982;9.226;2022-10-16T11:04:31;100298.81;;;21.49;100.00
21644;BME280;10983;51.982;9.226;2022-10-16T11:07:05;100252.34;;;21.42;100.00
21644;BME280;10983;51.982;9.226;2022-10-16T11:09:38;100228.06;;;22.49;100.00
21644;BME280;10983;51.982;9.226;2022-10-16T11:12:12;100213.84;;;22.17;100.00
21644;BME280;10983;51.982;9.226;2022-10-16T11:14:48;100222.06;;;22.12;100.00
21644;BME280;10983;51.982;9.226;2022-10-16T11:17:19;100233.22;;;21.20;100.00
21644;BME280;10983;51.982;9.226;2022-10-16T11:19:54;100175.81;;;20.36;100.00
21644;BME280;10983;51.982;9.226;2022-10-16T11:22:30;100126.53;;;21.26;100.00
21644;BME280;10983;51.982;9.226;2022-10-16T11:25:02;100085.47;;;21.64;100.00
21644;BME280;10983;51.982;9.226;2022-10-16T11:27:37;100079.75;;;21.66;100.00
21644;BME280;10983;51.982;9.226;2022-10-16T11:30:14;100098.09;;;21.42;100.00
21644;BME280;10983;51.982;9.226;2022-10-16T11:32:52;100059.50;;;22.69;100.00
21644;BME280;10983;51.982;9.226;2022-10-16T11:35:25;100063.88;;;22.21;100.00
21644;BME280;10983;51.982;9.226;2022-10-16T11:38:02;100065.53;;;22.44;100.00
21644;BME280;10983;51.982;9.226;2022-10-16T11:40:38;100063.16;;;23.17;100.00
21644;BME280;10983;51.982;9.226;2022-10-16T11:43:12;100072.28;;;23.68;100.00
21644;BME280;10983;51.982;9.226;2022-10-16T11:45:43;100086.44;;;23.56;100.00
21644;BME280;10983;51.982;9.226;2022-10-16T11:48:19;100078.88;;;24.00;100.00
21644;BME280;10983;51.982;9.226;2022-10-16T11:50:53;100101.16;;;25.03;100.00
21644;BME280;10983;51.982;9.226;2022-10-16T11:53:33;100099.25;;;24.70;100.00
21644;BME280;10983;51.982;9.226;2022-10-16T11:56:05;100091.50;;;24.97;100.00
21644;BME280;10983;51.982;9.226;2022-10-16T11:58:36;100101.19;;;25.32;100.00
21644;BME280;10983;51.982;9.226;2022-10-16T12:01:17;100107.41;;;25.41;100.00
21644;BME280;10983;51.982;9.226;2022-10-16T12:03:56;100110.50;;;26.26;100.00
21644;BME280;10983;51.982;9.226;2022-10-16T12:06:31;100114.34;;;26.25;100.00
21644;BME280;10983;51.982;9.226;2022-10-16T12:09:02;100124.25;;;26.09;100.00
21644;BME280;10983;51.982;9.226;2022-10-16T12:11:34;100143.19;;;26.55;100.00
21644;BME280;10983;51.982;9.226;2022-10-16T12:14:16;100142.28;;;24.85;100.00
21644;BME280;10983;51.982;9.226;2022-10-16T12:16:53;100112.19;;;24.14;100.00
21644;BME280;10983;51.982;9.226;2022-10-16T12:19:23;100103.22;;;24.22;100.00
21644;BME280;10983;51.982;9.226;2022-10-16T12:21:52;100096.88;;;23.71;100.00
21644;BME280;10983;51.982;9.226;2022-10-16T12:24:36;100087.38;;;24.91;100.00
21644;BME280;10983;51.982;9.226;2022-10-16T12:27:06;100107.25;;;24.75;100.00
21644;BME280;10983;51.982;9.226;2022-10-16T12:29:36;100102.50;;;26.01;100.00
21644;BME280;10983;51.982;9.226;2022-10-16T12:32:18;100136.47;;;26.52;100.00
21644;BME280;10983;51.982;9.226;2022-10-16T12:35:18;100155.38;;;26.57;100.00
21644;BME280;10983;51.982;9.226;2022-10-16T12:37:46;100162.34;;;27.51;100.00
21644;BME280;10983;51.982;9.226;2022-10-16T12:40:25;100151.75;;;25.58;100.00
21644;BME280;10983;51.982;9.226;2022-10-16T12:42:53;100115.91;;;24.43;100.00
21644;BME280;10983;51.982;9.226;2022-10-16T12:45:27;100101.94;;;24.95;100.00
21644;BME280;10983;51.982;9.226;2022-10-16T12:47:55;100133.56;;;25.79;100.00
21644;BME280;10983;51.982;9.226;2022-10-16T12:50:30;100129.63;;;25.68;100.00
21644;BME280;10983;51.982;9.226;2022-10-16T12:52:59;100140.88;;;25.50;100.00
21644;BME280;10983;51.982;9.226;2022-10-16T12:55:35;100140.53;;;25.06;100.00
21644;BME280;10983;51.982;9.226;2022-10-16T12:58:21;100124.97;;;24.89;100.00
21644;BME280;10983;51.982;9.226;2022-10-16T13:00:56;100127.06;;;25.01;100.00
21644;BME280;10983;51.982;9.226;2022-10-16T13:03:31;100128.69;;;24.85;100.00
21644;BME280;10983;51.982;9.226;2022-10-16T13:06:12;100134.44;;;25.54;100.00
21644;BME280;10983;51.982;9.226;2022-10-16T13:09:01;100156.66;;;26.31;100.00